createdAt,value
2019-04-29T00:01:32.013Z,48.70
2019-04-29T00:04:02.400Z,48.80
2019-04-29T00:06:32.789Z,48.70
2019-04-29T00:09:07.650Z,48.60
2019-04-29T00:11:38.478Z,48.50
2019-04-29T00:14:10.132Z,48.60
2019-04-29T00:16:47.809Z,48.60
2019-04-29T00:19:22.649Z,48.60
2019-04-29T00:21:53.472Z,48.60
2019-04-29T00:24:23.873Z,48.60
2019-04-29T00:26:54.592Z,48.70
2019-04-29T00:29:25.017Z,48.50
2019-04-29T00:31:55.414Z,48.50
2019-04-29T00:34:25.802Z,48.50
2019-04-29T00:37:05.106Z,48.60
2019-04-29T00:39:53.827Z,48.70
2019-04-29T00:42:44.705Z,48.80
2019-04-29T00:45:16.635Z,48.80
2019-04-29T00:47:47.474Z,48.80
2019-04-29T00:50:18.245Z,48.80
2019-04-29T00:52:49.064Z,48.70
2019-04-29T00:55:27.233Z,48.70
2019-04-29T00:57:58.197Z,48.70
2019-04-29T01:00:33.119Z,48.80
2019-04-29T01:03:04.000Z,48.90
2019-04-29T01:05:34.406Z,48.90
2019-04-29T01:08:05.141Z,48.90
2019-04-29T01:10:35.558Z,49.20
2019-04-29T01:13:06.613Z,49.20
2019-04-29T01:15:37.349Z,49.20
2019-04-29T01:18:07.880Z,49.20
2019-04-29T01:20:38.508Z,49.10
2019-04-29T01:23:10.469Z,49.10
2019-04-29T01:25:42.083Z,49.00
2019-04-29T01:28:16.520Z,48.90
2019-04-29T01:30:59.132Z,48.90
2019-04-29T01:33:30.040Z,48.90
2019-04-29T01:36:07.361Z,48.90
2019-04-29T01:38:37.781Z,49.00
2019-04-29T01:41:18.511Z,49.30
2019-04-29T01:44:02.374Z,49.40
2019-04-29T01:46:32.991Z,49.30
2019-04-29T01:49:03.571Z,49.40
2019-04-29T01:51:33.986Z,49.30
2019-04-29T01:54:04.415Z,49.30
2019-04-29T01:56:35.233Z,49.10
2019-04-29T01:59:05.749Z,49.20
2019-04-29T02:01:36.140Z,49.20
2019-04-29T02:04:06.746Z,49.10
2019-04-29T02:06:37.159Z,49.00
2019-04-29T02:09:10.180Z,48.80
2019-04-29T02:11:41.255Z,48.70
2019-04-29T02:14:13.716Z,48.80
2019-04-29T02:16:44.533Z,48.80
2019-04-29T02:19:15.199Z,48.90
2019-04-29T02:21:47.313Z,49.00
2019-04-29T02:24:19.128Z,49.00
2019-04-29T02:26:49.911Z,49.00
2019-04-29T02:29:20.326Z,49.00
2019-04-29T02:31:50.803Z,48.90
2019-04-29T02:34:21.557Z,48.90
2019-04-29T02:36:51.957Z,48.90
2019-04-29T02:39:36.496Z,48.90
2019-04-29T02:42:25.437Z,48.80
2019-04-29T02:44:57.317Z,48.90
2019-04-29T02:47:27.705Z,48.90
2019-04-29T02:49:58.550Z,48.90
2019-04-29T02:52:29.386Z,49.10
2019-04-29T02:55:01.245Z,49.00
2019-04-29T02:57:33.002Z,49.10
2019-04-29T03:00:04.905Z,49.00
2019-04-29T03:02:46.317Z,49.00
2019-04-29T03:05:24.835Z,49.10
2019-04-29T03:07:55.249Z,49.00
2019-04-29T03:10:26.169Z,49.00
2019-04-29T03:12:57.003Z,48.90
2019-04-29T03:15:29.671Z,49.00
2019-04-29T03:18:00.315Z,49.00
2019-04-29T03:20:35.269Z,49.00
2019-04-29T03:23:19.388Z,49.00
2019-04-29T03:25:49.798Z,49.00
2019-04-29T03:28:20.207Z,49.10
2019-04-29T03:30:50.643Z,49.10
2019-04-29T03:33:21.473Z,49.10
2019-04-29T03:35:52.155Z,49.00
2019-04-29T03:38:22.577Z,49.00
2019-04-29T03:40:53.282Z,48.90
2019-04-29T03:43:24.514Z,48.90
2019-04-29T03:45:55.424Z,48.90
2019-04-29T03:48:26.258Z,48.90
2019-04-29T03:50:56.746Z,48.90
2019-04-29T03:53:28.357Z,49.00
2019-04-29T03:55:59.833Z,49.00
2019-04-29T03:58:30.843Z,49.00
2019-04-29T04:01:02.713Z,49.00
2019-04-29T04:03:34.578Z,49.00
2019-04-29T04:06:07.256Z,49.00
2019-04-29T04:08:41.818Z,49.00
2019-04-29T04:11:12.685Z,48.90
2019-04-29T04:13:43.189Z,48.80
2019-04-29T04:16:15.355Z,48.80
2019-04-29T04:18:45.751Z,48.80
2019-04-29T04:21:16.156Z,49.00
2019-04-29T04:23:46.560Z,48.90
2019-04-29T04:26:17.092Z,48.90
2019-04-29T04:28:47.733Z,49.00
2019-04-29T04:31:18.150Z,49.10
2019-04-29T04:33:48.814Z,49.00
2019-04-29T04:36:19.761Z,49.00
2019-04-29T04:38:50.164Z,49.00
2019-04-29T04:41:40.112Z,48.90
2019-04-29T04:44:11.105Z,48.70
2019-04-29T04:46:41.864Z,48.80
2019-04-29T04:49:15.771Z,48.90
2019-04-29T04:51:44.190Z,48.80
2019-04-29T04:54:14.574Z,48.90
2019-04-29T04:56:45.005Z,48.90
2019-04-29T04:59:15.397Z,48.90
2019-04-29T05:01:46.031Z,48.80
2019-04-29T05:04:16.772Z,48.70
2019-04-29T05:06:47.200Z,48.80
2019-04-29T05:09:17.706Z,48.80
2019-04-29T05:11:48.124Z,48.90
2019-04-29T05:14:18.529Z,48.90
2019-04-29T05:16:48.938Z,48.90
2019-04-29T05:19:19.354Z,48.90
2019-04-29T05:21:50.339Z,49.00
2019-04-29T05:24:21.049Z,48.90
2019-04-29T05:26:51.703Z,48.90
2019-04-29T05:29:22.469Z,48.90
2019-04-29T05:31:52.977Z,48.80
2019-04-29T05:34:24.983Z,48.70
2019-04-29T05:37:05.536Z,48.80
2019-04-29T05:39:43.199Z,48.90
2019-04-29T05:42:17.141Z,48.90
2019-04-29T05:44:56.493Z,48.90
2019-04-29T05:47:28.260Z,48.90
2019-04-29T05:50:17.237Z,48.80
2019-04-29T05:52:53.208Z,48.90
2019-04-29T05:55:23.863Z,48.80
2019-04-29T05:58:02.935Z,48.80
2019-04-29T06:00:27.510Z,48.80
2019-04-29T06:02:57.905Z,48.80
2019-04-29T06:05:28.682Z,48.80
2019-04-29T06:08:01.178Z,48.80
2019-04-29T06:10:31.636Z,48.90
2019-04-29T06:13:02.022Z,48.90
2019-04-29T06:15:32.822Z,48.80
2019-04-29T06:18:03.770Z,48.80
2019-04-29T06:20:34.515Z,48.80
2019-04-29T06:23:04.926Z,48.70
2019-04-29T06:25:35.315Z,48.80
2019-04-29T06:28:06.065Z,48.80
2019-04-29T06:30:38.741Z,48.90
2019-04-29T06:33:08.724Z,48.90
2019-04-29T06:35:39.170Z,48.90
2019-04-29T06:38:09.910Z,48.90
2019-04-29T06:40:40.311Z,48.90
2019-04-29T06:43:11.045Z,48.90
2019-04-29T06:45:41.707Z,48.80
2019-04-29T06:48:12.146Z,48.80
2019-04-29T06:50:42.853Z,48.80
2019-04-29T06:53:16.511Z,48.80
2019-04-29T06:55:45.150Z,48.70
2019-04-29T06:58:15.858Z,48.80
2019-04-29T07:00:46.527Z,48.80
2019-04-29T07:03:21.021Z,48.80
2019-04-29T07:05:51.467Z,48.90
2019-04-29T07:08:21.305Z,48.90
2019-04-29T07:10:55.734Z,48.80
2019-04-29T07:13:24.601Z,48.90
2019-04-29T07:15:55.503Z,48.80
2019-04-29T07:18:25.906Z,48.80
2019-04-29T07:20:56.611Z,48.80
2019-04-29T07:23:27.499Z,48.80
2019-04-29T07:25:58.314Z,48.70
2019-04-29T07:28:29.144Z,48.80
2019-04-29T07:31:01.761Z,48.80
2019-04-29T07:33:31.483Z,48.80
2019-04-29T07:36:10.976Z,48.80
2019-04-29T07:38:41.222Z,48.80
2019-04-29T07:41:05.906Z,48.80
2019-04-29T07:43:38.663Z,48.80
2019-04-29T07:46:10.742Z,48.70
2019-04-29T07:48:42.071Z,48.70
2019-04-29T07:51:13.313Z,48.80
2019-04-29T07:53:45.628Z,48.90
2019-04-29T07:56:16.294Z,48.90
2019-04-29T07:58:48.517Z,48.90
2019-04-29T08:01:19.795Z,48.90
2019-04-29T08:03:51.184Z,48.80
2019-04-29T08:06:21.662Z,48.80
2019-04-29T08:08:55.098Z,48.80
2019-04-29T08:11:24.920Z,48.80
2019-04-29T08:13:56.362Z,48.80
2019-04-29T08:16:26.742Z,48.70
2019-04-29T08:18:57.440Z,48.70
2019-04-29T08:21:28.162Z,48.80
2019-04-29T08:23:58.891Z,48.80
2019-04-29T08:26:29.289Z,48.90
2019-04-29T08:29:00.731Z,48.90
2019-04-29T08:31:31.596Z,48.90
2019-04-29T08:34:02.324Z,48.90
2019-04-29T08:36:32.766Z,48.80
2019-04-29T08:39:08.612Z,48.90
2019-04-29T08:41:35.030Z,48.90
2019-04-29T08:44:19.793Z,48.80
2019-04-29T08:46:52.761Z,48.70
2019-04-29T08:49:23.490Z,49.40
2019-04-29T08:51:53.977Z,48.70
2019-04-29T08:54:24.414Z,48.80
2019-04-29T08:57:03.107Z,48.90
2019-04-29T08:59:27.495Z,48.90
2019-04-29T09:01:58.270Z,48.90
2019-04-29T09:04:33.167Z,48.80
2019-04-29T09:07:11.967Z,48.70
2019-04-29T09:09:32.761Z,48.70
2019-04-29T09:12:03.354Z,48.80
2019-04-29T09:14:34.379Z,48.80
2019-04-29T09:17:13.552Z,48.90
2019-04-29T09:19:39.312Z,48.90
2019-04-29T09:22:10.277Z,48.90
2019-04-29T09:24:43.581Z,48.80
2019-04-29T09:27:15.697Z,48.80
2019-04-29T09:29:46.587Z,48.80
2019-04-29T09:32:17.288Z,48.90
2019-04-29T09:34:47.703Z,48.70
2019-04-29T09:37:18.585Z,48.80
2019-04-29T09:39:50.284Z,48.70
2019-04-29T09:42:25.498Z,48.80
2019-04-29T09:45:00.196Z,48.90
2019-04-29T09:47:31.360Z,48.90
2019-04-29T09:50:01.917Z,48.80
2019-04-29T09:52:32.648Z,48.80
2019-04-29T09:55:03.959Z,48.70
2019-04-29T09:57:35.201Z,48.80
2019-04-29T10:00:12.464Z,48.70
2019-04-29T10:02:44.571Z,48.70
2019-04-29T10:05:32.867Z,48.80
2019-04-29T10:08:03.573Z,48.80
2019-04-29T10:10:36.982Z,48.90
2019-04-29T10:13:06.312Z,48.80
2019-04-29T10:15:38.408Z,48.80
2019-04-29T10:18:13.565Z,48.90
2019-04-29T10:20:54.609Z,48.70
2019-04-29T10:23:25.455Z,49.00
2019-04-29T10:25:56.344Z,49.40
2019-04-29T10:28:27.068Z,48.70
2019-04-29T10:30:57.475Z,48.60
2019-04-29T10:33:28.231Z,48.80
2019-04-29T10:35:59.066Z,48.60
2019-04-29T10:38:29.626Z,48.70
2019-04-29T10:41:08.036Z,48.70
2019-04-29T10:43:56.423Z,48.60
2019-04-29T10:46:44.561Z,48.70
2019-04-29T10:49:34.848Z,48.70
2019-04-29T10:52:05.136Z,48.70
2019-04-29T10:54:35.957Z,49.40
2019-04-29T10:57:10.550Z,49.50
2019-04-29T10:59:40.632Z,48.70
2019-04-29T11:02:31.947Z,48.70
2019-04-29T11:05:07.961Z,48.70
2019-04-29T11:07:40.153Z,48.70
2019-04-29T11:10:28.767Z,48.70
2019-04-29T11:12:59.585Z,48.60
2019-04-29T11:15:32.719Z,48.70
2019-04-29T11:18:03.936Z,48.70
2019-04-29T11:20:34.901Z,48.70
2019-04-29T11:23:18.194Z,48.60
2019-04-29T11:26:06.100Z,48.60
2019-04-29T11:28:37.327Z,48.70
2019-04-29T11:31:09.771Z,48.70
2019-04-29T11:33:41.782Z,48.60
2019-04-29T11:36:13.586Z,48.60
2019-04-29T11:38:44.127Z,48.70
2019-04-29T11:41:19.772Z,48.60
2019-04-29T11:43:50.864Z,48.60
2019-04-29T11:46:21.006Z,48.50
2019-04-29T11:48:52.485Z,48.70
2019-04-29T11:51:25.002Z,48.60
2019-04-29T11:53:56.033Z,48.70
2019-04-29T11:56:26.428Z,48.60
2019-04-29T11:59:03.907Z,48.60
2019-04-29T12:01:38.768Z,48.60
2019-04-29T12:04:28.659Z,48.50
2019-04-29T12:06:58.367Z,48.50
2019-04-29T12:09:30.475Z,48.60
2019-04-29T12:12:01.256Z,48.60
2019-04-29T12:14:49.297Z,48.60
2019-04-29T12:17:33.548Z,48.50
2019-04-29T12:20:05.393Z,48.70
2019-04-29T12:22:47.821Z,49.20
2019-04-29T12:25:08.993Z,48.50
2019-04-29T12:27:39.502Z,48.50
2019-04-29T12:30:11.570Z,48.50
2019-04-29T12:33:01.321Z,48.50
2019-04-29T12:35:32.377Z,48.40
2019-04-29T12:38:05.916Z,48.50
2019-04-29T12:40:55.174Z,48.60
2019-04-29T12:43:48.597Z,48.60
2019-04-29T12:46:21.674Z,48.50
2019-04-29T12:48:52.441Z,48.40
2019-04-29T12:51:23.649Z,48.50
2019-04-29T12:53:54.518Z,48.50
2019-04-29T12:56:38.472Z,48.40
2019-04-29T12:59:08.844Z,48.50
2019-04-29T13:01:58.748Z,48.50
2019-04-29T13:04:45.117Z,48.40
2019-04-29T13:07:24.983Z,48.40
2019-04-29T13:10:07.021Z,48.50
2019-04-29T13:12:34.663Z,48.40
2019-04-29T13:15:13.877Z,48.50
2019-04-29T13:18:03.252Z,48.40
2019-04-29T13:20:27.047Z,48.50
2019-04-29T13:23:00.568Z,48.40
2019-04-29T13:25:29.493Z,48.40
2019-04-29T13:28:03.857Z,48.40
2019-04-29T13:30:32.411Z,48.40
2019-04-29T13:33:05.915Z,48.50
2019-04-29T13:35:35.503Z,48.50
2019-04-29T13:38:06.105Z,48.30
2019-04-29T13:40:38.926Z,48.30
2019-04-29T13:43:09.300Z,48.30
2019-04-29T13:45:50.288Z,48.30
2019-04-29T13:48:22.042Z,48.40
2019-04-29T13:50:56.896Z,48.30
2019-04-29T13:53:27.665Z,48.30
2019-04-29T13:56:11.226Z,49.10
2019-04-29T13:58:30.622Z,48.40
2019-04-29T14:01:23.953Z,48.40
2019-04-29T14:03:59.085Z,48.20
2019-04-29T14:06:30.071Z,48.20
2019-04-29T14:09:03.918Z,48.40
2019-04-29T14:11:33.026Z,48.50
2019-04-29T14:14:03.743Z,48.80
2019-04-29T14:16:34.283Z,48.90
2019-04-29T14:19:08.385Z,49.00
2019-04-29T14:21:37.289Z,49.00
2019-04-29T14:24:08.142Z,49.00
2019-04-29T14:26:42.021Z,48.90
2019-04-29T14:29:10.362Z,48.80
2019-04-29T14:31:40.790Z,48.90
2019-04-29T14:34:19.860Z,49.10
2019-04-29T14:36:47.545Z,49.30
2019-04-29T14:39:36.139Z,49.70
2019-04-29T14:41:55.325Z,49.20
2019-04-29T14:44:39.371Z,49.30
2019-04-29T14:47:27.278Z,49.50
2019-04-29T14:50:01.817Z,50.00
2019-04-29T14:52:33.510Z,50.20
2019-04-29T14:55:03.953Z,50.40
2019-04-29T14:57:34.716Z,50.60
2019-04-29T15:00:07.756Z,50.50
2019-04-29T15:02:38.222Z,50.50
2019-04-29T15:05:12.307Z,50.40
2019-04-29T15:07:40.861Z,50.30
2019-04-29T15:10:12.479Z,50.40
2019-04-29T15:13:01.572Z,50.50
2019-04-29T15:15:34.053Z,50.60
2019-04-29T15:18:15.999Z,50.80
2019-04-29T15:20:42.436Z,50.70
2019-04-29T15:23:12.881Z,50.80
2019-04-29T15:25:43.331Z,50.90
2019-04-29T15:28:13.726Z,51.50
2019-04-29T15:30:45.530Z,51.00
2019-04-29T15:33:15.897Z,51.10
2019-04-29T15:35:46.511Z,51.30
2019-04-29T15:38:16.946Z,51.30
2019-04-29T15:40:47.655Z,51.70
2019-04-29T15:43:22.614Z,51.80
2019-04-29T15:45:50.192Z,51.70
2019-04-29T15:48:20.698Z,51.60
2019-04-29T15:50:51.095Z,51.40
2019-04-29T15:53:23.339Z,51.20
2019-04-29T15:56:06.221Z,51.20
2019-04-29T15:58:27.703Z,51.20
2019-04-29T16:01:12.935Z,51.20
2019-04-29T16:03:31.735Z,51.20
2019-04-29T16:06:21.059Z,50.90
2019-04-29T16:08:59.100Z,50.70
2019-04-29T16:11:36.855Z,50.50
2019-04-29T16:14:10.051Z,50.60
2019-04-29T16:16:40.861Z,50.60
2019-04-29T16:19:11.263Z,50.80
2019-04-29T16:21:42.967Z,50.80
2019-04-29T16:24:25.999Z,50.90
2019-04-29T16:26:45.294Z,51.00
2019-04-29T16:29:15.847Z,50.90
2019-04-29T16:31:46.246Z,50.90
2019-04-29T16:34:16.682Z,51.00
2019-04-29T16:36:50.081Z,51.00
2019-04-29T16:39:19.003Z,51.10
2019-04-29T16:41:58.231Z,51.20
2019-04-29T16:44:35.669Z,51.20
2019-04-29T16:46:56.066Z,51.40
2019-04-29T16:49:26.530Z,51.50
2019-04-29T16:51:57.053Z,51.60
2019-04-29T16:54:28.934Z,51.60
2019-04-29T16:56:59.394Z,51.50
2019-04-29T16:59:31.423Z,51.50
2019-04-29T17:02:02.044Z,51.50
2019-04-29T17:04:33.424Z,51.40
2019-04-29T17:07:12.492Z,51.30
2019-04-29T17:09:45.821Z,51.30
2019-04-29T17:12:16.311Z,51.30
2019-04-29T17:15:03.138Z,51.30
2019-04-29T17:17:28.601Z,51.30
2019-04-29T17:19:52.992Z,51.30
2019-04-29T17:22:26.927Z,51.40
2019-04-29T17:24:56.775Z,51.50
2019-04-29T17:27:46.329Z,51.50
2019-04-29T17:30:38.402Z,51.60
2019-04-29T17:33:26.324Z,51.60
2019-04-29T17:35:49.673Z,51.50
2019-04-29T17:38:20.052Z,51.50
2019-04-29T17:40:51.102Z,51.50
2019-04-29T17:46:02.344Z,51.40
2019-04-29T17:48:37.080Z,51.60
2019-04-29T17:51:09.428Z,51.50
2019-04-29T17:53:55.061Z,51.70
2019-04-29T17:56:35.710Z,51.80
2019-04-29T17:59:10.776Z,51.90
2019-04-29T18:01:48.621Z,51.90
2019-04-29T18:04:29.452Z,52.10
2019-04-29T18:07:10.500Z,52.10
2019-04-29T18:09:36.516Z,52.30
2019-04-29T18:12:08.311Z,52.40
2019-04-29T18:14:41.793Z,52.50
2019-04-29T18:17:12.722Z,53.30
2019-04-29T18:19:47.382Z,52.80
2019-04-29T18:22:34.954Z,52.80
2019-04-29T18:25:30.856Z,52.60
2019-04-29T18:28:00.004Z,52.90
2019-04-29T18:30:35.751Z,52.80
2019-04-29T18:33:00.722Z,52.60
2019-04-29T18:35:31.224Z,52.60
2019-04-29T18:38:01.660Z,52.60
2019-04-29T18:40:35.468Z,52.60
2019-04-29T18:43:04.987Z,51.30
2019-04-29T18:45:36.901Z,49.80
2019-04-29T18:48:08.577Z,49.10
2019-04-29T18:50:39.594Z,48.30
2019-04-29T18:53:10.040Z,47.80
2019-04-29T18:55:40.551Z,47.50
2019-04-29T18:58:10.988Z,47.80
2019-04-29T19:00:46.123Z,47.00
2019-04-29T19:03:17.279Z,46.80
2019-04-29T19:05:52.012Z,46.60
2019-04-29T19:08:23.520Z,46.40
2019-04-29T19:10:54.397Z,46.40
2019-04-29T19:13:26.035Z,46.00
2019-04-29T19:16:09.071Z,46.30
2019-04-29T19:18:29.954Z,46.40
2019-04-29T19:21:00.338Z,47.30
2019-04-29T19:23:30.932Z,47.40
2019-04-29T19:26:02.029Z,48.10
2019-04-29T19:28:34.684Z,48.20
2019-04-29T19:31:09.451Z,47.60
2019-04-29T19:33:39.337Z,47.10
2019-04-29T19:36:17.148Z,47.80
2019-04-29T19:38:43.338Z,48.40
2019-04-29T19:41:16.290Z,48.30
2019-04-29T19:43:48.391Z,47.40
2019-04-29T19:46:24.164Z,47.20
2019-04-29T19:48:50.659Z,48.20
2019-04-29T19:51:22.925Z,48.80
2019-04-29T19:53:53.020Z,48.30
2019-04-29T19:56:26.985Z,47.40
2019-04-29T19:58:57.983Z,46.90
2019-04-29T20:01:32.282Z,47.00
2019-04-29T20:04:15.848Z,47.90
2019-04-29T20:06:42.925Z,48.90
2019-04-29T20:09:18.146Z,48.20
2019-04-29T20:11:46.127Z,47.40
2019-04-29T20:14:26.667Z,47.10
2019-04-29T20:17:12.622Z,47.90
2019-04-29T20:19:55.284Z,48.90
2019-04-29T20:22:22.581Z,47.80
2019-04-29T20:24:55.655Z,47.00
2019-04-29T20:27:30.812Z,46.50
2019-04-29T20:29:58.464Z,46.90
2019-04-29T20:32:31.874Z,47.60
2019-04-29T20:35:06.854Z,47.80
2019-04-29T20:37:32.930Z,47.00
2019-04-29T20:40:05.581Z,46.60
2019-04-29T20:42:35.825Z,46.60
2019-04-29T20:45:08.746Z,47.60
2019-04-29T20:47:41.993Z,48.30
2019-04-29T20:50:13.681Z,47.60
2019-04-29T20:52:44.989Z,46.80
2019-04-29T20:55:16.066Z,47.00
2019-04-29T20:57:47.848Z,48.20
2019-04-29T21:00:20.230Z,48.10
2019-04-29T21:02:51.696Z,46.90
2019-04-29T21:05:24.631Z,46.20
2019-04-29T21:08:03.066Z,46.50
2019-04-29T21:10:27.650Z,47.40
2019-04-29T21:13:20.337Z,47.90
2019-04-29T21:15:52.510Z,47.50
2019-04-29T21:18:22.778Z,46.60
2019-04-29T21:20:59.573Z,46.10
2019-04-29T21:23:31.516Z,46.90
2019-04-29T21:26:00.518Z,47.30
2019-04-29T21:28:38.175Z,47.90
2019-04-29T21:31:05.242Z,47.30
2019-04-29T21:33:35.851Z,46.50
2019-04-29T21:36:26.499Z,46.30
2019-04-29T21:39:06.202Z,46.50
2019-04-29T21:41:55.518Z,47.30
2019-04-29T21:44:27.815Z,47.90
2019-04-29T21:46:59.718Z,47.20
2019-04-29T21:49:42.322Z,46.60
2019-04-29T21:52:02.254Z,46.20
2019-04-29T21:54:32.679Z,46.90
2019-04-29T21:57:03.120Z,48.00
2019-04-29T21:59:35.749Z,47.80
2019-04-29T22:02:06.637Z,47.60
2019-04-29T22:04:38.559Z,46.90
2019-04-29T22:07:10.328Z,46.90
2019-04-29T22:09:44.747Z,48.10
2019-04-29T22:12:14.117Z,48.80
2019-04-29T22:14:52.103Z,48.30
2019-04-29T22:17:16.490Z,47.30
2019-04-29T22:19:47.630Z,46.40
2019-04-29T22:22:18.048Z,46.60
2019-04-29T22:24:51.158Z,47.30
2019-04-29T22:27:20.381Z,48.40
2019-04-29T22:29:51.259Z,47.90
2019-04-29T22:32:21.668Z,46.90
2019-04-29T22:34:54.811Z,46.20
2019-04-29T22:37:25.482Z,46.40
2019-04-29T22:39:58.673Z,46.80
2019-04-29T22:42:32.375Z,47.30
2019-04-29T22:45:02.919Z,47.00
2019-04-29T22:47:33.336Z,46.50
2019-04-29T22:50:04.583Z,46.10
2019-04-29T22:52:36.717Z,46.90
2019-04-29T22:55:08.397Z,47.60
2019-04-29T22:57:38.843Z,47.60
2019-04-29T23:00:09.539Z,46.70
2019-04-29T23:02:43.063Z,46.30
2019-04-29T23:05:13.563Z,47.10
2019-04-29T23:07:45.606Z,47.70
2019-04-29T23:10:19.914Z,47.80
2019-04-29T23:12:49.311Z,46.90
2019-04-29T23:15:23.500Z,46.80
2019-04-29T23:17:52.177Z,47.20
2019-04-29T23:20:29.490Z,47.50
2019-04-29T23:23:11.346Z,47.10
2019-04-29T23:25:43.151Z,46.40
2019-04-29T23:28:13.899Z,45.70
2019-04-29T23:30:47.791Z,46.10
2019-04-29T23:33:22.953Z,46.00
2019-04-29T23:35:49.463Z,46.70
2019-04-29T23:38:20.371Z,46.10
2019-04-29T23:40:54.494Z,45.80
2019-04-29T23:43:25.357Z,46.20
2019-04-29T23:45:59.063Z,46.20
2019-04-29T23:48:38.787Z,46.70
2019-04-29T23:51:00.063Z,46.20
2019-04-29T23:53:30.836Z,46.00
2019-04-29T23:56:05.560Z,46.20
2019-04-29T23:58:46.778Z,46.20
